sensor_id;sensor_type;location;lat;lon;timestamp;P1;durP1;ratioP1;P2;durP2;ratioP2
56363;SDS011;42261;52.094;4.326;2023-02-24T00:02:14;2.47;;;0.60;;
56363;SDS011;42261;52.094;4.326;2023-02-24T00:05:02;2.93;;;1.10;;
56363;SDS011;42261;52.094;4.326;2023-02-24T00:07:46;3.30;;;1.00;;
56363;SDS011;42261;52.094;4.326;2023-02-24T00:10:30;9.60;;;1.10;;
56363;SDS011;42261;52.094;4.326;2023-02-24T00:13:15;4.85;;;0.80;;
56363;SDS011;42261;52.094;4.326;2023-02-24T00:16:05;2.72;;;0.70;;
56363;SDS011;42261;52.094;4.326;2023-02-24T00:18:49;2.88;;;0.80;;
56363;SDS011;42261;52.094;4.326;2023-02-24T00:21:34;4.82;;;0.88;;
56363;SDS011;42261;52.094;4.326;2023-02-24T00:24:17;4.45;;;0.90;;
56363;SDS011;42261;52.094;4.326;2023-02-24T00:27:02;3.78;;;0.68;;
56363;SDS011;42261;52.094;4.326;2023-02-24T00:29:50;4.63;;;1.02;;
56363;SDS011;42261;52.094;4.326;2023-02-24T00:32:35;3.63;;;0.98;;
56363;SDS011;42261;52.094;4.326;2023-02-24T00:35:20;4.53;;;0.70;;
56363;SDS011;42261;52.094;4.326;2023-02-24T00:38:04;3.85;;;0.70;;
56363;SDS011;42261;52.094;4.326;2023-02-24T00:40:48;7.43;;;0.90;;
56363;SDS011;42261;52.094;4.326;2023-02-24T00:43:32;5.10;;;0.77;;
56363;SDS011;42261;52.094;4.326;2023-02-24T00:46:20;2.83;;;0.80;;
56363;SDS011;42261;52.094;4.326;2023-02-24T00:49:12;2.80;;;0.70;;
56363;SDS011;42261;52.094;4.326;2023-02-24T00:51:59;9.15;;;1.10;;
56363;SDS011;42261;52.094;4.326;2023-02-24T00:54:44;5.10;;;0.90;;
56363;SDS011;42261;52.094;4.326;2023-02-24T00:57:28;3.55;;;0.77;;
56363;SDS011;42261;52.094;4.326;2023-02-24T01:00:12;6.03;;;0.90;;
56363;SDS011;42261;52.094;4.326;2023-02-24T01:02:58;2.88;;;0.57;;
56363;SDS011;42261;52.094;4.326;2023-02-24T01:05:42;6.28;;;0.70;;
56363;SDS011;42261;52.094;4.326;2023-02-24T01:08:26;2.83;;;0.88;;
56363;SDS011;42261;52.094;4.326;2023-02-24T01:11:10;5.10;;;1.13;;
56363;SDS011;42261;52.094;4.326;2023-02-24T01:14:15;4.03;;;0.95;;
56363;SDS011;42261;52.094;4.326;2023-02-24T01:16:59;7.07;;;0.80;;
56363;SDS011;42261;52.094;4.326;2023-02-24T01:19:43;1.98;;;0.88;;
56363;SDS011;42261;52.094;4.326;2023-02-24T01:22:27;2.58;;;0.60;;
56363;SDS011;42261;52.094;4.326;2023-02-24T01:25:11;6.75;;;0.80;;
56363;SDS011;42261;52.094;4.326;2023-02-24T01:27:55;5.88;;;0.73;;
56363;SDS011;42261;52.094;4.326;2023-02-24T01:30:39;2.63;;;0.80;;
56363;SDS011;42261;52.094;4.326;2023-02-24T01:33:26;4.82;;;1.48;;
56363;SDS011;42261;52.094;4.326;2023-02-24T01:36:11;9.10;;;1.38;;
56363;SDS011;42261;52.094;4.326;2023-02-24T01:38:57;3.33;;;0.98;;
56363;SDS011;42261;52.094;4.326;2023-02-24T01:41:42;1.75;;;1.42;;
56363;SDS011;42261;52.094;4.326;2023-02-24T01:47:17;5.32;;;1.00;;
56363;SDS011;42261;52.094;4.326;2023-02-24T01:50:03;4.80;;;0.80;;
56363;SDS011;42261;52.094;4.326;2023-02-24T01:52:48;5.50;;;0.70;;
56363;SDS011;42261;52.094;4.326;2023-02-24T01:55:40;4.93;;;1.65;;
56363;SDS011;42261;52.094;4.326;2023-02-24T01:58:26;3.03;;;0.77;;
56363;SDS011;42261;52.094;4.326;2023-02-24T02:01:13;3.33;;;0.70;;
56363;SDS011;42261;52.094;4.326;2023-02-24T02:04:01;4.33;;;0.90;;
56363;SDS011;42261;52.094;4.326;2023-02-24T02:06:46;2.42;;;0.50;;
56363;SDS011;42261;52.094;4.326;2023-02-24T02:09:32;1.48;;;0.50;;
56363;SDS011;42261;52.094;4.326;2023-02-24T02:12:17;3.60;;;0.70;;
56363;SDS011;42261;52.094;4.326;2023-02-24T02:15:02;3.97;;;0.57;;
56363;SDS011;42261;52.094;4.326;2023-02-24T02:20:40;3.10;;;0.50;;
56363;SDS011;42261;52.094;4.326;2023-02-24T02:29:36;3.72;;;0.65;;
56363;SDS011;42261;52.094;4.326;2023-02-24T02:35:56;2.40;;;0.50;;
56363;SDS011;42261;52.094;4.326;2023-02-24T02:38:50;6.78;;;0.70;;
56363;SDS011;42261;52.094;4.326;2023-02-24T02:44:39;3.55;;;0.60;;
56363;SDS011;42261;52.094;4.326;2023-02-24T02:47:39;7.07;;;0.80;;
56363;SDS011;42261;52.094;4.326;2023-02-24T02:53:23;4.15;;;0.68;;
56363;SDS011;42261;52.094;4.326;2023-02-24T02:56:14;5.90;;;0.90;;
56363;SDS011;42261;52.094;4.326;2023-02-24T02:58:59;1.40;;;0.47;;
56363;SDS011;42261;52.094;4.326;2023-02-24T03:01:43;0.88;;;0.73;;
56363;SDS011;42261;52.094;4.326;2023-02-24T03:04:30;1.17;;;0.57;;
56363;SDS011;42261;52.094;4.326;2023-02-24T03:07:14;4.20;;;0.73;;
56363;SDS011;42261;52.094;4.326;2023-02-24T03:10:01;2.03;;;0.35;;
56363;SDS011;42261;52.094;4.326;2023-02-24T03:12:53;6.07;;;0.60;;
56363;SDS011;42261;52.094;4.326;2023-02-24T03:15:38;3.80;;;0.63;;
56363;SDS011;42261;52.094;4.326;2023-02-24T03:18:35;1.25;;;0.60;;
56363;SDS011;42261;52.094;4.326;2023-02-24T03:21:23;1.85;;;0.50;;
56363;SDS011;42261;52.094;4.326;2023-02-24T03:24:11;4.88;;;0.63;;
56363;SDS011;42261;52.094;4.326;2023-02-24T03:27:09;2.85;;;0.60;;
56363;SDS011;42261;52.094;4.326;2023-02-24T03:29:56;3.17;;;0.60;;
56363;SDS011;42261;52.094;4.326;2023-02-24T03:32:52;5.32;;;1.02;;
56363;SDS011;42261;52.094;4.326;2023-02-24T03:35:39;2.72;;;0.70;;
56363;SDS011;42261;52.094;4.326;2023-02-24T03:38:25;3.75;;;0.88;;
56363;SDS011;42261;52.094;4.326;2023-02-24T03:41:09;2.35;;;0.57;;
56363;SDS011;42261;52.094;4.326;2023-02-24T03:43:56;6.03;;;0.55;;
56363;SDS011;42261;52.094;4.326;2023-02-24T03:46:41;5.53;;;0.77;;
56363;SDS011;42261;52.094;4.326;2023-02-24T03:49:25;4.53;;;0.63;;
56363;SDS011;42261;52.094;4.326;2023-02-24T03:52:19;2.42;;;0.63;;
56363;SDS011;42261;52.094;4.326;2023-02-24T03:58:00;3.20;;;0.40;;
56363;SDS011;42261;52.094;4.326;2023-02-24T04:00:57;3.40;;;0.77;;
56363;SDS011;42261;52.094;4.326;2023-02-24T04:15:05;3.60;;;0.77;;
56363;SDS011;42261;52.094;4.326;2023-02-24T04:17:55;6.50;;;0.90;;
56363;SDS011;42261;52.094;4.326;2023-02-24T04:20:44;5.35;;;1.10;;
56363;SDS011;42261;52.094;4.326;2023-02-24T04:23:33;6.85;;;1.27;;
56363;SDS011;42261;52.094;4.326;2023-02-24T04:26:21;8.05;;;1.33;;
56363;SDS011;42261;52.094;4.326;2023-02-24T04:29:07;4.55;;;1.10;;
56363;SDS011;42261;52.094;4.326;2023-02-24T04:31:53;6.43;;;1.30;;
56363;SDS011;42261;52.094;4.326;2023-02-24T04:34:40;5.38;;;1.20;;
56363;SDS011;42261;52.094;4.326;2023-02-24T04:37:24;5.30;;;1.38;;
56363;SDS011;42261;52.094;4.326;2023-02-24T04:40:09;6.22;;;1.35;;
56363;SDS011;42261;52.094;4.326;2023-02-24T04:42:54;3.55;;;1.30;;
56363;SDS011;42261;52.094;4.326;2023-02-24T04:45:38;4.90;;;1.20;;
56363;SDS011;42261;52.094;4.326;2023-02-24T04:48:23;6.05;;;1.67;;
56363;SDS011;42261;52.094;4.326;2023-02-24T04:51:08;7.55;;;1.30;;
56363;SDS011;42261;52.094;4.326;2023-02-24T04:53:52;5.57;;;1.40;;
56363;SDS011;42261;52.094;4.326;2023-02-24T04:56:38;4.88;;;1.20;;
56363;SDS011;42261;52.094;4.326;2023-02-24T04:59:23;5.40;;;1.15;;
56363;SDS011;42261;52.094;4.326;2023-02-24T05:02:08;6.13;;;1.85;;
56363;SDS011;42261;52.094;4.326;2023-02-24T05:04:52;9.18;;;1.75;;
56363;SDS011;42261;52.094;4.326;2023-02-24T05:07:35;5.82;;;1.38;;
56363;SDS011;42261;52.094;4.326;2023-02-24T05:10:20;9.10;;;1.73;;
56363;SDS011;42261;52.094;4.326;2023-02-24T05:13:05;4.78;;;1.05;;
56363;SDS011;42261;52.094;4.326;2023-02-24T05:15:49;4.20;;;1.60;;
56363;SDS011;42261;52.094;4.326;2023-02-24T05:18:33;2.90;;;1.30;;
56363;SDS011;42261;52.094;4.326;2023-02-24T05:21:20;4.10;;;1.35;;
56363;SDS011;42261;52.094;4.326;2023-02-24T05:24:20;3.97;;;0.88;;
56363;SDS011;42261;52.094;4.326;2023-02-24T05:27:04;3.38;;;1.13;;
56363;SDS011;42261;52.094;4.326;2023-02-24T05:29:48;5.80;;;1.10;;
56363;SDS011;42261;52.094;4.326;2023-02-24T05:32:32;4.88;;;1.05;;
56363;SDS011;42261;52.094;4.326;2023-02-24T05:35:17;5.65;;;1.15;;
56363;SDS011;42261;52.094;4.326;2023-02-24T05:38:02;8.85;;;1.52;;
56363;SDS011;42261;52.094;4.326;2023-02-24T05:40:46;5.03;;;1.30;;
56363;SDS011;42261;52.094;4.326;2023-02-24T05:43:33;8.50;;;1.70;;
56363;SDS011;42261;52.094;4.326;2023-02-24T05:46:18;8.00;;;1.38;;
56363;SDS011;42261;52.094;4.326;2023-02-24T05:49:04;4.38;;;1.20;;
56363;SDS011;42261;52.094;4.326;2023-02-24T05:51:52;5.47;;;1.25;;
56363;SDS011;42261;52.094;4.326;2023-02-24T05:54:38;5.13;;;1.23;;
56363;SDS011;42261;52.094;4.326;2023-02-24T05:57:22;6.45;;;1.17;;
56363;SDS011;42261;52.094;4.326;2023-02-24T06:00:16;6.32;;;1.33;;
56363;SDS011;42261;52.094;4.326;2023-02-24T06:03:02;4.97;;;0.88;;
56363;SDS011;42261;52.094;4.326;2023-02-24T06:05:54;6.03;;;1.10;;
56363;SDS011;42261;52.094;4.326;2023-02-24T06:08:38;5.65;;;1.00;;
56363;SDS011;42261;52.094;4.326;2023-02-24T06:11:25;7.18;;;1.08;;
56363;SDS011;42261;52.094;4.326;2023-02-24T06:14:10;4.70;;;1.20;;
56363;SDS011;42261;52.094;4.326;2023-02-24T06:16:55;5.45;;;0.82;;
56363;SDS011;42261;52.094;4.326;2023-02-24T06:19:39;3.75;;;1.48;;
56363;SDS011;42261;52.094;4.326;2023-02-24T06:22:25;7.03;;;1.08;;
56363;SDS011;42261;52.094;4.326;2023-02-24T06:25:09;8.73;;;1.30;;
56363;SDS011;42261;52.094;4.326;2023-02-24T06:27:56;4.50;;;1.45;;
56363;SDS011;42261;52.094;4.326;2023-02-24T06:30:45;4.68;;;1.30;;
56363;SDS011;42261;52.094;4.326;2023-02-24T06:33:29;5.88;;;1.30;;
56363;SDS011;42261;52.094;4.326;2023-02-24T06:36:14;4.35;;;1.95;;
56363;SDS011;42261;52.094;4.326;2023-02-24T06:38:58;10.50;;;2.20;;
56363;SDS011;42261;52.094;4.326;2023-02-24T06:41:42;4.85;;;1.10;;
56363;SDS011;42261;52.094;4.326;2023-02-24T06:44:27;10.88;;;1.27;;
56363;SDS011;42261;52.094;4.326;2023-02-24T06:47:12;5.07;;;1.15;;
56363;SDS011;42261;52.094;4.326;2023-02-24T06:50:00;4.45;;;1.20;;
56363;SDS011;42261;52.094;4.326;2023-02-24T06:52:45;7.20;;;1.67;;
56363;SDS011;42261;52.094;4.326;2023-02-24T06:55:29;9.23;;;1.38;;
56363;SDS011;42261;52.094;4.326;2023-02-24T06:58:15;6.97;;;1.50;;
56363;SDS011;42261;52.094;4.326;2023-02-24T07:00:59;3.75;;;1.05;;
56363;SDS011;42261;52.094;4.326;2023-02-24T07:03:47;9.13;;;1.40;;
56363;SDS011;42261;52.094;4.326;2023-02-24T07:06:51;6.72;;;1.98;;
56363;SDS011;42261;52.094;4.326;2023-02-24T07:09:35;5.68;;;1.23;;
56363;SDS011;42261;52.094;4.326;2023-02-24T07:12:19;12.15;;;1.73;;
56363;SDS011;42261;52.094;4.326;2023-02-24T07:15:03;2.85;;;1.17;;
56363;SDS011;42261;52.094;4.326;2023-02-24T07:17:48;9.63;;;1.48;;
56363;SDS011;42261;52.094;4.326;2023-02-24T07:20:33;11.45;;;1.40;;
56363;SDS011;42261;52.094;4.326;2023-02-24T07:23:18;8.10;;;1.52;;
56363;SDS011;42261;52.094;4.326;2023-02-24T07:26:08;6.07;;;1.48;;
56363;SDS011;42261;52.094;4.326;2023-02-24T07:28:53;8.98;;;1.70;;
56363;SDS011;42261;52.094;4.326;2023-02-24T07:31:38;14.32;;;2.45;;
56363;SDS011;42261;52.094;4.326;2023-02-24T07:34:23;6.97;;;1.40;;
56363;SDS011;42261;52.094;4.326;2023-02-24T07:37:08;4.13;;;1.15;;
56363;SDS011;42261;52.094;4.326;2023-02-24T07:39:52;5.40;;;1.17;;
56363;SDS011;42261;52.094;4.326;2023-02-24T07:42:36;11.05;;;1.40;;
56363;SDS011;42261;52.094;4.326;2023-02-24T07:45:22;11.52;;;1.40;;
56363;SDS011;42261;52.094;4.326;2023-02-24T07:48:07;12.98;;;2.17;;
56363;SDS011;42261;52.094;4.326;2023-02-24T07:50:55;7.72;;;1.48;;
56363;SDS011;42261;52.094;4.326;2023-02-24T07:53:39;8.35;;;1.75;;
56363;SDS011;42261;52.094;4.326;2023-02-24T07:56:24;7.57;;;2.00;;
56363;SDS011;42261;52.094;4.326;2023-02-24T07:59:12;7.73;;;1.67;;
56363;SDS011;42261;52.094;4.326;2023-02-24T08:02:02;5.63;;;1.23;;
56363;SDS011;42261;52.094;4.326;2023-02-24T08:04:50;5.07;;;1.13;;
56363;SDS011;42261;52.094;4.326;2023-02-24T08:07:35;6.65;;;1.50;;
56363;SDS011;42261;52.094;4.326;2023-02-24T08:10:19;9.88;;;1.95;;
56363;SDS011;42261;52.094;4.326;2023-02-24T08:13:09;9.52;;;1.90;;
56363;SDS011;42261;52.094;4.326;2023-02-24T08:15:54;8.52;;;2.15;;
56363;SDS011;42261;52.094;4.326;2023-02-24T08:18:41;6.20;;;1.27;;
56363;SDS011;42261;52.094;4.326;2023-02-24T08:21:32;10.10;;;1.45;;
56363;SDS011;42261;52.094;4.326;2023-02-24T08:24:21;9.68;;;1.30;;
56363;SDS011;42261;52.094;4.326;2023-02-24T08:27:06;11.95;;;1.70;;
56363;SDS011;42261;52.094;4.326;2023-02-24T08:29:52;9.70;;;1.75;;
56363;SDS011;42261;52.094;4.326;2023-02-24T08:32:44;7.63;;;1.48;;
56363;SDS011;42261;52.094;4.326;2023-02-24T08:35:30;7.20;;;1.30;;
56363;SDS011;42261;52.094;4.326;2023-02-24T08:38:16;7.30;;;1.30;;
56363;SDS011;42261;52.094;4.326;2023-02-24T08:41:00;10.77;;;2.58;;
56363;SDS011;42261;52.094;4.326;2023-02-24T08:43:47;12.65;;;2.20;;
56363;SDS011;42261;52.094;4.326;2023-02-24T08:46:31;15.18;;;2.72;;
56363;SDS011;42261;52.094;4.326;2023-02-24T08:49:21;12.40;;;1.60;;
56363;SDS011;42261;52.094;4.326;2023-02-24T08:52:07;7.32;;;1.58;;
56363;SDS011;42261;52.094;4.326;2023-02-24T08:54:52;15.10;;;1.75;;
56363;SDS011;42261;52.094;4.326;2023-02-24T08:57:41;7.13;;;1.42;;
56363;SDS011;42261;52.094;4.326;2023-02-24T09:00:34;9.13;;;2.25;;
56363;SDS011;42261;52.094;4.326;2023-02-24T09:03:31;28.63;;;2.25;;
56363;SDS011;42261;52.094;4.326;2023-02-24T09:06:19;6.70;;;1.65;;
56363;SDS011;42261;52.094;4.326;2023-02-24T09:09:08;9.80;;;2.40;;
56363;SDS011;42261;52.094;4.326;2023-02-24T09:12:03;12.63;;;2.30;;
56363;SDS011;42261;52.094;4.326;2023-02-24T09:14:53;9.25;;;2.25;;
56363;SDS011;42261;52.094;4.326;2023-02-24T09:17:41;10.18;;;2.30;;
56363;SDS011;42261;52.094;4.326;2023-02-24T09:20:30;11.35;;;2.63;;
56363;SDS011;42261;52.094;4.326;2023-02-24T09:23:33;16.40;;;2.42;;
56363;SDS011;42261;52.094;4.326;2023-02-24T09:26:28;13.70;;;2.90;;
56363;SDS011;42261;52.094;4.326;2023-02-24T09:29:16;15.63;;;3.55;;
56363;SDS011;42261;52.094;4.326;2023-02-24T09:32:29;10.73;;;3.17;;
56363;SDS011;42261;52.094;4.326;2023-02-24T09:35:13;14.20;;;5.82;;
56363;SDS011;42261;52.094;4.326;2023-02-24T09:38:10;12.10;;;4.68;;
56363;SDS011;42261;52.094;4.326;2023-02-24T09:43:52;14.05;;;4.65;;
56363;SDS011;42261;52.094;4.326;2023-02-24T09:47:03;15.60;;;5.55;;
56363;SDS011;42261;52.094;4.326;2023-02-24T09:49:52;16.35;;;6.35;;
56363;SDS011;42261;52.094;4.326;2023-02-24T09:52:42;18.58;;;6.82;;
56363;SDS011;42261;52.094;4.326;2023-02-24T10:04:12;18.23;;;7.43;;
56363;SDS011;42261;52.094;4.326;2023-02-24T10:10:09;17.85;;;7.75;;
56363;SDS011;42261;52.094;4.326;2023-02-24T10:13:11;22.02;;;7.57;;
56363;SDS011;42261;52.094;4.326;2023-02-24T10:15:57;20.92;;;8.18;;
56363;SDS011;42261;52.094;4.326;2023-02-24T10:18:44;14.50;;;7.82;;
56363;SDS011;42261;52.094;4.326;2023-02-24T10:21:52;15.60;;;7.75;;
56363;SDS011;42261;52.094;4.326;2023-02-24T10:24:47;23.95;;;8.45;;
56363;SDS011;42261;52.094;4.326;2023-02-24T10:27:32;22.40;;;7.45;;
56363;SDS011;42261;52.094;4.326;2023-02-24T10:33:30;17.98;;;7.57;;
56363;SDS011;42261;52.094;4.326;2023-02-24T10:36:21;14.95;;;7.15;;
56363;SDS011;42261;52.094;4.326;2023-02-24T10:39:21;14.63;;;7.65;;
56363;SDS011;42261;52.094;4.326;2023-02-24T10:42:08;20.40;;;8.27;;
56363;SDS011;42261;52.094;4.326;2023-02-24T10:47:56;20.90;;;7.78;;
56363;SDS011;42261;52.094;4.326;2023-02-24T10:50:42;15.77;;;7.43;;
56363;SDS011;42261;52.094;4.326;2023-02-24T10:53:27;17.50;;;8.48;;
56363;SDS011;42261;52.094;4.326;2023-02-24T10:56:17;13.45;;;6.65;;
56363;SDS011;42261;52.094;4.326;2023-02-24T11:02:44;18.08;;;7.32;;
56363;SDS011;42261;52.094;4.326;2023-02-24T11:05:42;12.95;;;6.60;;
56363;SDS011;42261;52.094;4.326;2023-02-24T11:08:39;9.93;;;5.85;;
56363;SDS011;42261;52.094;4.326;2023-02-24T11:11:30;13.13;;;7.18;;
56363;SDS011;42261;52.094;4.326;2023-02-24T11:14:45;14.93;;;6.70;;
56363;SDS011;42261;52.094;4.326;2023-02-24T11:17:57;17.23;;;6.65;;
56363;SDS011;42261;52.094;4.326;2023-02-24T11:20:43;14.50;;;8.10;;
56363;SDS011;42261;52.094;4.326;2023-02-24T11:23:33;16.55;;;7.47;;
56363;SDS011;42261;52.094;4.326;2023-02-24T11:26:20;19.15;;;7.50;;
56363;SDS011;42261;52.094;4.326;2023-02-24T11:37:40;18.05;;;6.35;;
56363;SDS011;42261;52.094;4.326;2023-02-24T11:40:26;22.63;;;5.50;;
56363;SDS011;42261;52.094;4.326;2023-02-24T11:43:19;15.93;;;5.63;;
56363;SDS011;42261;52.094;4.326;2023-02-24T11:46:20;20.40;;;5.28;;
56363;SDS011;42261;52.094;4.326;2023-02-24T11:52:14;12.50;;;3.92;;
56363;SDS011;42261;52.094;4.326;2023-02-24T11:54:58;14.73;;;4.32;;
56363;SDS011;42261;52.094;4.326;2023-02-24T11:57:45;21.42;;;4.38;;
56363;SDS011;42261;52.094;4.326;2023-02-24T12:00:31;17.23;;;3.63;;
56363;SDS011;42261;52.094;4.326;2023-02-24T12:03:22;17.10;;;3.15;;
56363;SDS011;42261;52.094;4.326;2023-02-24T12:06:11;17.13;;;3.35;;
56363;SDS011;42261;52.094;4.326;2023-02-24T12:08:59;12.77;;;2.33;;
56363;SDS011;42261;52.094;4.326;2023-02-24T12:11:52;18.08;;;3.60;;
56363;SDS011;42261;52.094;4.326;2023-02-24T12:14:49;15.70;;;2.63;;
56363;SDS011;42261;52.094;4.326;2023-02-24T12:17:40;16.85;;;3.60;;
56363;SDS011;42261;52.094;4.326;2023-02-24T12:20:29;13.63;;;2.65;;
56363;SDS011;42261;52.094;4.326;2023-02-24T12:23:19;13.63;;;3.25;;
56363;SDS011;42261;52.094;4.326;2023-02-24T12:30:11;18.50;;;2.38;;
56363;SDS011;42261;52.094;4.326;2023-02-24T12:32:30;17.58;;;3.15;;
56363;SDS011;42261;52.094;4.326;2023-02-24T12:35:30;9.52;;;2.58;;
56363;SDS011;42261;52.094;4.326;2023-02-24T12:41:23;10.77;;;2.25;;
56363;SDS011;42261;52.094;4.326;2023-02-24T12:44:34;9.90;;;2.65;;
56363;SDS011;42261;52.094;4.326;2023-02-24T12:47:24;14.40;;;2.13;;
56363;SDS011;42261;52.094;4.326;2023-02-24T12:50:30;16.00;;;3.35;;
56363;SDS011;42261;52.094;4.326;2023-02-24T12:53:19;18.38;;;2.28;;
56363;SDS011;42261;52.094;4.326;2023-02-24T12:58:55;14.87;;;2.27;;
56363;SDS011;42261;52.094;4.326;2023-02-24T13:01:46;18.63;;;2.92;;
56363;SDS011;42261;52.094;4.326;2023-02-24T13:10:59;13.57;;;2.50;;
56363;SDS011;42261;52.094;4.326;2023-02-24T13:13:55;28.98;;;3.08;;
56363;SDS011;42261;52.094;4.326;2023-02-24T13:16:43;23.20;;;3.17;;
56363;SDS011;42261;52.094;4.326;2023-02-24T13:19:28;14.20;;;2.65;;
56363;SDS011;42261;52.094;4.326;2023-02-24T13:24:59;11.90;;;2.88;;
56363;SDS011;42261;52.094;4.326;2023-02-24T13:27:56;12.48;;;2.67;;
56363;SDS011;42261;52.094;4.326;2023-02-24T13:30:43;21.25;;;2.42;;
56363;SDS011;42261;52.094;4.326;2023-02-24T13:33:29;21.48;;;3.38;;
56363;SDS011;42261;52.094;4.326;2023-02-24T13:36:15;11.15;;;3.13;;
56363;SDS011;42261;52.094;4.326;2023-02-24T13:41:44;14.77;;;3.22;;
56363;SDS011;42261;52.094;4.326;2023-02-24T13:44:28;16.40;;;3.28;;
56363;SDS011;42261;52.094;4.326;2023-02-24T13:55:28;20.48;;;4.38;;
56363;SDS011;42261;52.094;4.326;2023-02-24T14:01:06;12.43;;;3.85;;
56363;SDS011;42261;52.094;4.326;2023-02-24T14:06:54;19.83;;;3.55;;
56363;SDS011;42261;52.094;4.326;2023-02-24T14:09:42;7.75;;;2.25;;
56363;SDS011;42261;52.094;4.326;2023-02-24T14:12:27;15.52;;;2.78;;
56363;SDS011;42261;52.094;4.326;2023-02-24T14:15:19;11.07;;;1.85;;
56363;SDS011;42261;52.094;4.326;2023-02-24T14:18:04;10.20;;;2.38;;
56363;SDS011;42261;52.094;4.326;2023-02-24T14:20:49;7.75;;;1.40;;
56363;SDS011;42261;52.094;4.326;2023-02-24T14:23:34;23.38;;;4.75;;
56363;SDS011;42261;52.094;4.326;2023-02-24T14:26:20;11.82;;;2.80;;
56363;SDS011;42261;52.094;4.326;2023-02-24T14:29:05;15.07;;;2.58;;
56363;SDS011;42261;52.094;4.326;2023-02-24T14:31:51;6.90;;;1.70;;
56363;SDS011;42261;52.094;4.326;2023-02-24T14:34:36;5.35;;;1.00;;
56363;SDS011;42261;52.094;4.326;2023-02-24T14:37:23;9.35;;;1.45;;
56363;SDS011;42261;52.094;4.326;2023-02-24T14:40:13;9.15;;;1.50;;
56363;SDS011;42261;52.094;4.326;2023-02-24T14:42:57;13.25;;;1.95;;
56363;SDS011;42261;52.094;4.326;2023-02-24T14:45:46;7.68;;;1.35;;
56363;SDS011;42261;52.094;4.326;2023-02-24T14:48:30;10.60;;;2.20;;
56363;SDS011;42261;52.094;4.326;2023-02-24T14:51:17;5.95;;;1.25;;
56363;SDS011;42261;52.094;4.326;2023-02-24T14:54:02;10.35;;;1.90;;
56363;SDS011;42261;52.094;4.326;2023-02-24T14:56:50;8.65;;;1.30;;
56363;SDS011;42261;52.094;4.326;2023-02-24T14:59:36;7.47;;;1.02;;
56363;SDS011;42261;52.094;4.326;2023-02-24T15:02:26;7.60;;;1.10;;
56363;SDS011;42261;52.094;4.326;2023-02-24T15:05:15;5.25;;;0.93;;
56363;SDS011;42261;52.094;4.326;2023-02-24T15:08:00;4.70;;;1.02;;
56363;SDS011;42261;52.094;4.326;2023-02-24T15:10:44;9.02;;;1.10;;
56363;SDS011;42261;52.094;4.326;2023-02-24T15:13:36;5.63;;;0.90;;
56363;SDS011;42261;52.094;4.326;2023-02-24T15:16:24;9.30;;;0.95;;
56363;SDS011;42261;52.094;4.326;2023-02-24T15:22:32;2.53;;;0.90;;
56363;SDS011;42261;52.094;4.326;2023-02-24T15:28:06;5.30;;;0.93;;
56363;SDS011;42261;52.094;4.326;2023-02-24T15:31:05;6.53;;;1.30;;
56363;SDS011;42261;52.094;4.326;2023-02-24T15:33:57;10.40;;;1.30;;
56363;SDS011;42261;52.094;4.326;2023-02-24T15:36:42;9.25;;;1.13;;
56363;SDS011;42261;52.094;4.326;2023-02-24T15:39:27;8.30;;;1.55;;
56363;SDS011;42261;52.094;4.326;2023-02-24T15:42:31;10.73;;;1.27;;
56363;SDS011;42261;52.094;4.326;2023-02-24T15:45:36;8.75;;;1.27;;
56363;SDS011;42261;52.094;4.326;2023-02-24T15:48:22;10.38;;;1.88;;
56363;SDS011;42261;52.094;4.326;2023-02-24T15:51:06;8.80;;;1.52;;
56363;SDS011;42261;52.094;4.326;2023-02-24T15:53:50;4.38;;;1.35;;
56363;SDS011;42261;52.094;4.326;2023-02-24T15:56:34;9.38;;;1.27;;
56363;SDS011;42261;52.094;4.326;2023-02-24T15:59:18;7.32;;;1.17;;
56363;SDS011;42261;52.094;4.326;2023-02-24T16:02:10;5.72;;;1.33;;
56363;SDS011;42261;52.094;4.326;2023-02-24T16:04:55;6.32;;;1.55;;
56363;SDS011;42261;52.094;4.326;2023-02-24T16:07:39;12.95;;;1.33;;
56363;SDS011;42261;52.094;4.326;2023-02-24T16:10:24;8.20;;;1.13;;
56363;SDS011;42261;52.094;4.326;2023-02-24T16:13:17;8.35;;;2.30;;
56363;SDS011;42261;52.094;4.326;2023-02-24T16:16:01;11.07;;;1.33;;
56363;SDS011;42261;52.094;4.326;2023-02-24T16:18:48;6.47;;;1.63;;
56363;SDS011;42261;52.094;4.326;2023-02-24T16:21:33;4.18;;;1.17;;
56363;SDS011;42261;52.094;4.326;2023-02-24T16:24:17;5.32;;;1.30;;
56363;SDS011;42261;52.094;4.326;2023-02-24T16:27:01;12.32;;;1.67;;
56363;SDS011;42261;52.094;4.326;2023-02-24T16:29:45;8.55;;;2.10;;
56363;SDS011;42261;52.094;4.326;2023-02-24T16:32:29;9.55;;;1.63;;
56363;SDS011;42261;52.094;4.326;2023-02-24T16:35:14;10.50;;;1.75;;
56363;SDS011;42261;52.094;4.326;2023-02-24T16:37:59;5.40;;;1.15;;
56363;SDS011;42261;52.094;4.326;2023-02-24T16:40:44;8.10;;;2.15;;
56363;SDS011;42261;52.094;4.326;2023-02-24T16:43:29;13.20;;;2.00;;
56363;SDS011;42261;52.094;4.326;2023-02-24T16:46:14;8.90;;;2.00;;
56363;SDS011;42261;52.094;4.326;2023-02-24T16:48:59;9.50;;;1.58;;
56363;SDS011;42261;52.094;4.326;2023-02-24T16:51:43;10.18;;;2.15;;
56363;SDS011;42261;52.094;4.326;2023-02-24T16:54:27;11.43;;;1.60;;
56363;SDS011;42261;52.094;4.326;2023-02-24T16:57:12;17.02;;;2.65;;
56363;SDS011;42261;52.094;4.326;2023-02-24T16:59:56;10.52;;;3.60;;
56363;SDS011;42261;52.094;4.326;2023-02-24T17:02:40;5.78;;;1.67;;
56363;SDS011;42261;52.094;4.326;2023-02-24T17:05:25;8.48;;;1.85;;
56363;SDS011;42261;52.094;4.326;2023-02-24T17:08:10;11.10;;;2.92;;
56363;SDS011;42261;52.094;4.326;2023-02-24T17:10:54;12.07;;;2.65;;
56363;SDS011;42261;52.094;4.326;2023-02-24T17:13:39;9.65;;;2.13;;
56363;SDS011;42261;52.094;4.326;2023-02-24T17:16:23;9.23;;;1.55;;
56363;SDS011;42261;52.094;4.326;2023-02-24T17:19:07;13.27;;;3.28;;
56363;SDS011;42261;52.094;4.326;2023-02-24T17:21:52;7.40;;;2.47;;
56363;SDS011;42261;52.094;4.326;2023-02-24T17:24:36;6.03;;;1.55;;
56363;SDS011;42261;52.094;4.326;2023-02-24T17:27:20;9.07;;;1.38;;
56363;SDS011;42261;52.094;4.326;2023-02-24T17:30:04;5.80;;;0.90;;
56363;SDS011;42261;52.094;4.326;2023-02-24T17:32:48;7.15;;;1.10;;
56363;SDS011;42261;52.094;4.326;2023-02-24T17:35:32;1.20;;;0.63;;
56363;SDS011;42261;52.094;4.326;2023-02-24T17:38:17;5.13;;;0.95;;
56363;SDS011;42261;52.094;4.326;2023-02-24T17:41:02;3.72;;;1.58;;
56363;SDS011;42261;52.094;4.326;2023-02-24T17:43:48;7.85;;;1.27;;
56363;SDS011;42261;52.094;4.326;2023-02-24T17:46:33;9.43;;;1.45;;
56363;SDS011;42261;52.094;4.326;2023-02-24T17:49:17;16.45;;;3.45;;
56363;SDS011;42261;52.094;4.326;2023-02-24T17:52:01;10.25;;;1.77;;
56363;SDS011;42261;52.094;4.326;2023-02-24T17:54:44;12.18;;;3.75;;
56363;SDS011;42261;52.094;4.326;2023-02-24T17:57:28;12.43;;;3.50;;
56363;SDS011;42261;52.094;4.326;2023-02-24T18:00:13;5.88;;;1.40;;
56363;SDS011;42261;52.094;4.326;2023-02-24T18:02:58;10.05;;;1.77;;
56363;SDS011;42261;52.094;4.326;2023-02-24T18:05:43;4.50;;;1.20;;
56363;SDS011;42261;52.094;4.326;2023-02-24T18:08:27;5.45;;;1.20;;
56363;SDS011;42261;52.094;4.326;2023-02-24T18:11:15;12.07;;;1.90;;
56363;SDS011;42261;52.094;4.326;2023-02-24T18:16:44;11.55;;;3.22;;
56363;SDS011;42261;52.094;4.326;2023-02-24T18:19:29;13.70;;;1.50;;
56363;SDS011;42261;52.094;4.326;2023-02-24T18:22:13;14.20;;;1.70;;
56363;SDS011;42261;52.094;4.326;2023-02-24T18:24:57;8.13;;;1.75;;
56363;SDS011;42261;52.094;4.326;2023-02-24T18:27:42;12.32;;;2.13;;
56363;SDS011;42261;52.094;4.326;2023-02-24T18:30:26;19.92;;;2.58;;
56363;SDS011;42261;52.094;4.326;2023-02-24T18:33:10;18.13;;;2.47;;
56363;SDS011;42261;52.094;4.326;2023-02-24T18:35:58;10.57;;;2.35;;
56363;SDS011;42261;52.094;4.326;2023-02-24T18:38:42;12.87;;;2.67;;
56363;SDS011;42261;52.094;4.326;2023-02-24T18:41:27;23.20;;;4.85;;